sensor_id;sensor_type;location;lat;lon;timestamp;temperature;humidity
25556;DHT22;13447;57.174;-2.112;2023-09-12T00:00:38;11.40;1.00
25556;DHT22;13447;57.174;-2.112;2023-09-12T00:03:05;11.40;1.00
25556;DHT22;13447;57.174;-2.112;2023-09-12T00:05:32;11.40;1.00
25556;DHT22;13447;57.174;-2.112;2023-09-12T00:07:59;11.40;1.00
25556;DHT22;13447;57.174;-2.112;2023-09-12T00:10:26;11.40;1.00
25556;DHT22;13447;57.174;-2.112;2023-09-12T00:12:53;11.30;1.00
25556;DHT22;13447;57.174;-2.112;2023-09-12T00:15:20;11.30;1.00
25556;DHT22;13447;57.174;-2.112;2023-09-12T00:17:47;11.30;1.00
25556;DHT22;13447;57.174;-2.112;2023-09-12T00:20:17;11.30;1.00
25556;DHT22;13447;57.174;-2.112;2023-09-12T00:22:44;11.30;1.00
25556;DHT22;13447;57.174;-2.112;2023-09-12T00:25:11;11.20;1.00
25556;DHT22;13447;57.174;-2.112;2023-09-12T00:27:37;11.20;1.00
25556;DHT22;13447;57.174;-2.112;2023-09-12T00:30:05;11.20;1.00
25556;DHT22;13447;57.174;-2.112;2023-09-12T00:32:32;11.20;1.00
25556;DHT22;13447;57.174;-2.112;2023-09-12T00:34:59;11.10;1.00
25556;DHT22;13447;57.174;-2.112;2023-09-12T00:37:26;11.20;1.00
25556;DHT22;13447;57.174;-2.112;2023-09-12T00:39:53;11.20;1.00
25556;DHT22;13447;57.174;-2.112;2023-09-12T00:42:20;11.10;1.00
25556;DHT22;13447;57.174;-2.112;2023-09-12T00:44:47;11.10;1.00
25556;DHT22;13447;57.174;-2.112;2023-09-12T00:47:14;11.10;1.00
25556;DHT22;13447;57.174;-2.112;2023-09-12T00:49:41;11.10;1.00
25556;DHT22;13447;57.174;-2.112;2023-09-12T00:52:08;11.10;1.00
25556;DHT22;13447;57.174;-2.112;2023-09-12T00:54:35;11.10;1.00
25556;DHT22;13447;57.174;-2.112;2023-09-12T00:57:02;11.10;1.00
25556;DHT22;13447;57.174;-2.112;2023-09-12T00:59:29;11.10;1.00
25556;DHT22;13447;57.174;-2.112;2023-09-12T01:01:56;11.10;1.00
25556;DHT22;13447;57.174;-2.112;2023-09-12T01:04:23;11.10;1.00
25556;DHT22;13447;57.174;-2.112;2023-09-12T01:07:02;11.00;1.00
25556;DHT22;13447;57.174;-2.112;2023-09-12T01:09:29;11.00;1.00
25556;DHT22;13447;57.174;-2.112;2023-09-12T01:11:56;11.00;1.00
25556;DHT22;13447;57.174;-2.112;2023-09-12T01:16:50;11.00;1.00
25556;DHT22;13447;57.174;-2.112;2023-09-12T01:19:17;11.00;1.00
25556;DHT22;13447;57.174;-2.112;2023-09-12T01:29:45;11.00;1.00
25556;DHT22;13447;57.174;-2.112;2023-09-12T01:32:14;11.00;1.00
25556;DHT22;13447;57.174;-2.112;2023-09-12T07:18:52;10.90;99.90
25556;DHT22;13447;57.174;-2.112;2023-09-12T07:26:14;11.10;99.90
25556;DHT22;13447;57.174;-2.112;2023-09-12T07:28:41;11.20;99.90
25556;DHT22;13447;57.174;-2.112;2023-09-12T07:31:08;11.30;99.90
25556;DHT22;13447;57.174;-2.112;2023-09-12T07:33:35;11.30;99.90
25556;DHT22;13447;57.174;-2.112;2023-09-12T07:36:02;11.30;99.90
25556;DHT22;13447;57.174;-2.112;2023-09-12T07:38:29;11.30;99.90
25556;DHT22;13447;57.174;-2.112;2023-09-12T07:41:02;11.40;99.90
25556;DHT22;13447;57.174;-2.112;2023-09-12T07:43:29;11.40;99.90
25556;DHT22;13447;57.174;-2.112;2023-09-12T07:55:46;11.70;99.90
25556;DHT22;13447;57.174;-2.112;2023-09-12T07:58:16;11.80;99.90
25556;DHT22;13447;57.174;-2.112;2023-09-12T08:00:45;11.90;99.90
25556;DHT22;13447;57.174;-2.112;2023-09-12T08:03:13;12.00;99.90
25556;DHT22;13447;57.174;-2.112;2023-09-12T08:05:40;12.10;99.90
25556;DHT22;13447;57.174;-2.112;2023-09-12T08:08:06;12.20;99.90
25556;DHT22;13447;57.174;-2.112;2023-09-12T08:10:33;12.20;99.90
25556;DHT22;13447;57.174;-2.112;2023-09-12T08:13:00;12.30;99.90
25556;DHT22;13447;57.174;-2.112;2023-09-12T08:15:27;12.30;99.90
25556;DHT22;13447;57.174;-2.112;2023-09-12T08:17:54;12.40;99.90
25556;DHT22;13447;57.174;-2.112;2023-09-12T08:20:21;12.40;99.90
25556;DHT22;13447;57.174;-2.112;2023-09-12T08:22:49;12.40;99.90
25556;DHT22;13447;57.174;-2.112;2023-09-12T08:25:16;12.50;99.90
25556;DHT22;13447;57.174;-2.112;2023-09-12T08:27:42;12.50;99.90
25556;DHT22;13447;57.174;-2.112;2023-09-12T08:30:13;12.50;99.90
25556;DHT22;13447;57.174;-2.112;2023-09-12T08:32:40;12.60;99.90
25556;DHT22;13447;57.174;-2.112;2023-09-12T08:35:11;12.60;99.90
25556;DHT22;13447;57.174;-2.112;2023-09-12T08:37:39;12.60;99.90
25556;DHT22;13447;57.174;-2.112;2023-09-12T08:40:07;12.70;99.90
25556;DHT22;13447;57.174;-2.112;2023-09-12T08:42:39;12.80;99.90
25556;DHT22;13447;57.174;-2.112;2023-09-12T08:45:17;12.80;99.90
25556;DHT22;13447;57.174;-2.112;2023-09-12T08:47:45;13.00;99.90
25556;DHT22;13447;57.174;-2.112;2023-09-12T08:50:14;13.10;99.90
25556;DHT22;13447;57.174;-2.112;2023-09-12T08:52:41;13.90;99.90
25556;DHT22;13447;57.174;-2.112;2023-09-12T08:55:30;14.60;62.60
25556;DHT22;13447;57.174;-2.112;2023-09-12T08:58:00;15.30;1.00
25556;DHT22;13447;57.174;-2.112;2023-09-12T09:00:29;16.10;1.00
25556;DHT22;13447;57.174;-2.112;2023-09-12T09:02:57;16.50;1.00
25556;DHT22;13447;57.174;-2.112;2023-09-12T09:05:24;16.90;1.00
25556;DHT22;13447;57.174;-2.112;2023-09-12T09:07:51;17.30;1.00
25556;DHT22;13447;57.174;-2.112;2023-09-12T09:10:19;17.70;1.00
25556;DHT22;13447;57.174;-2.112;2023-09-12T09:13:07;17.60;1.00
25556;DHT22;13447;57.174;-2.112;2023-09-12T09:15:37;17.60;1.00
25556;DHT22;13447;57.174;-2.112;2023-09-12T09:18:08;17.50;1.00
25556;DHT22;13447;57.174;-2.112;2023-09-12T09:20:37;17.10;1.00
25556;DHT22;13447;57.174;-2.112;2023-09-12T09:23:08;16.60;1.00
25556;DHT22;13447;57.174;-2.112;2023-09-12T09:25:39;16.10;1.00
25556;DHT22;13447;57.174;-2.112;2023-09-12T09:28:16;16.00;1.00
25556;DHT22;13447;57.174;-2.112;2023-09-12T09:30:44;16.30;1.00
25556;DHT22;13447;57.174;-2.112;2023-09-12T09:33:12;17.00;1.00
25556;DHT22;13447;57.174;-2.112;2023-09-12T09:35:43;17.40;1.00
25556;DHT22;13447;57.174;-2.112;2023-09-12T09:38:10;17.70;1.00
25556;DHT22;13447;57.174;-2.112;2023-09-12T09:40:43;18.00;1.00
25556;DHT22;13447;57.174;-2.112;2023-09-12T09:43:09;18.40;1.00
25556;DHT22;13447;57.174;-2.112;2023-09-12T09:45:43;18.50;1.00
25556;DHT22;13447;57.174;-2.112;2023-09-12T09:48:18;18.60;1.00
25556;DHT22;13447;57.174;-2.112;2023-09-12T09:50:45;18.80;1.00
25556;DHT22;13447;57.174;-2.112;2023-09-12T09:53:12;18.90;1.00
25556;DHT22;13447;57.174;-2.112;2023-09-12T09:55:39;18.90;1.00
25556;DHT22;13447;57.174;-2.112;2023-09-12T09:58:06;18.80;1.00
25556;DHT22;13447;57.174;-2.112;2023-09-12T10:00:33;18.30;1.00
25556;DHT22;13447;57.174;-2.112;2023-09-12T10:03:00;18.30;1.00
25556;DHT22;13447;57.174;-2.112;2023-09-12T10:05:31;18.60;1.00
25556;DHT22;13447;57.174;-2.112;2023-09-12T10:07:59;18.70;1.00
25556;DHT22;13447;57.174;-2.112;2023-09-12T10:10:27;19.00;1.00
25556;DHT22;13447;57.174;-2.112;2023-09-12T10:12:56;18.90;1.00
25556;DHT22;13447;57.174;-2.112;2023-09-12T10:15:24;18.70;1.00
25556;DHT22;13447;57.174;-2.112;2023-09-12T10:17:59;19.10;1.00
25556;DHT22;13447;57.174;-2.112;2023-09-12T10:20:33;19.10;1.00
25556;DHT22;13447;57.174;-2.112;2023-09-12T10:23:08;18.60;1.00
25556;DHT22;13447;57.174;-2.112;2023-09-12T10:25:38;17.90;1.00
25556;DHT22;13447;57.174;-2.112;2023-09-12T10:28:05;17.40;1.00
25556;DHT22;13447;57.174;-2.112;2023-09-12T10:30:32;17.80;1.00
25556;DHT22;13447;57.174;-2.112;2023-09-12T10:33:00;18.30;1.00
25556;DHT22;13447;57.174;-2.112;2023-09-12T10:35:29;18.40;1.00
25556;DHT22;13447;57.174;-2.112;2023-09-12T10:37:57;18.80;1.00
25556;DHT22;13447;57.174;-2.112;2023-09-12T10:40:26;19.10;1.00
25556;DHT22;13447;57.174;-2.112;2023-09-12T10:42:54;19.30;1.00
25556;DHT22;13447;57.174;-2.112;2023-09-12T10:45:21;19.50;1.00
25556;DHT22;13447;57.174;-2.112;2023-09-12T10:47:48;19.70;99.90
25556;DHT22;13447;57.174;-2.112;2023-09-12T10:50:15;20.00;99.90
25556;DHT22;13447;57.174;-2.112;2023-09-12T10:52:44;20.10;99.90
25556;DHT22;13447;57.174;-2.112;2023-09-12T10:55:17;20.10;99.90
25556;DHT22;13447;57.174;-2.112;2023-09-12T10:58:03;19.90;99.90
25556;DHT22;13447;57.174;-2.112;2023-09-12T11:00:30;19.70;99.90
25556;DHT22;13447;57.174;-2.112;2023-09-12T11:05:53;19.00;99.90
25556;DHT22;13447;57.174;-2.112;2023-09-12T11:08:20;18.70;99.90
25556;DHT22;13447;57.174;-2.112;2023-09-12T11:13:37;17.80;99.90
25556;DHT22;13447;57.174;-2.112;2023-09-12T11:16:10;17.30;99.90
25556;DHT22;13447;57.174;-2.112;2023-09-12T11:21:32;16.70;99.90
25556;DHT22;13447;57.174;-2.112;2023-09-12T11:24:02;16.50;1.00
25556;DHT22;13447;57.174;-2.112;2023-09-12T11:26:30;16.10;1.00
25556;DHT22;13447;57.174;-2.112;2023-09-12T11:28:58;16.10;1.00
25556;DHT22;13447;57.174;-2.112;2023-09-12T11:31:37;16.20;1.00
25556;DHT22;13447;57.174;-2.112;2023-09-12T11:34:09;16.50;1.00
25556;DHT22;13447;57.174;-2.112;2023-09-12T11:36:38;16.70;99.90
25556;DHT22;13447;57.174;-2.112;2023-09-12T11:39:08;17.30;99.90
25556;DHT22;13447;57.174;-2.112;2023-09-12T11:41:48;18.20;99.90
25556;DHT22;13447;57.174;-2.112;2023-09-12T11:44:15;18.70;99.90
25556;DHT22;13447;57.174;-2.112;2023-09-12T11:46:42;19.40;99.90
25556;DHT22;13447;57.174;-2.112;2023-09-12T11:49:10;19.80;99.90
25556;DHT22;13447;57.174;-2.112;2023-09-12T11:51:43;20.00;99.90
25556;DHT22;13447;57.174;-2.112;2023-09-12T11:54:13;20.10;99.90
25556;DHT22;13447;57.174;-2.112;2023-09-12T11:56:40;20.50;99.90
25556;DHT22;13447;57.174;-2.112;2023-09-12T11:59:07;20.90;99.90
25556;DHT22;13447;57.174;-2.112;2023-09-12T12:01:37;21.30;99.90
25556;DHT22;13447;57.174;-2.112;2023-09-12T12:04:04;21.00;99.90
25556;DHT22;13447;57.174;-2.112;2023-09-12T12:06:31;21.30;99.90
25556;DHT22;13447;57.174;-2.112;2023-09-12T12:08:58;21.20;99.90
25556;DHT22;13447;57.174;-2.112;2023-09-12T12:11:28;20.40;99.90
25556;DHT22;13447;57.174;-2.112;2023-09-12T12:13:55;19.70;99.90
25556;DHT22;13447;57.174;-2.112;2023-09-12T12:16:22;19.30;99.90
25556;DHT22;13447;57.174;-2.112;2023-09-12T12:18:52;19.50;99.90
25556;DHT22;13447;57.174;-2.112;2023-09-12T12:21:22;20.10;1.00
25556;DHT22;13447;57.174;-2.112;2023-09-12T12:23:57;19.70;99.90
25556;DHT22;13447;57.174;-2.112;2023-09-12T12:26:24;19.20;99.90
25556;DHT22;13447;57.174;-2.112;2023-09-12T12:28:51;19.40;99.90
25556;DHT22;13447;57.174;-2.112;2023-09-12T12:31:18;19.90;99.90
25556;DHT22;13447;57.174;-2.112;2023-09-12T12:33:49;20.40;99.90
25556;DHT22;13447;57.174;-2.112;2023-09-12T12:36:42;20.70;99.90
25556;DHT22;13447;57.174;-2.112;2023-09-12T12:39:23;21.10;99.90
25556;DHT22;13447;57.174;-2.112;2023-09-12T12:41:54;21.10;99.90
25556;DHT22;13447;57.174;-2.112;2023-09-12T12:44:21;21.10;99.90
25556;DHT22;13447;57.174;-2.112;2023-09-12T12:46:51;20.90;99.90
25556;DHT22;13447;57.174;-2.112;2023-09-12T12:49:19;20.90;99.90
25556;DHT22;13447;57.174;-2.112;2023-09-12T12:51:46;21.00;99.90
25556;DHT22;13447;57.174;-2.112;2023-09-12T12:54:14;21.20;99.90
25556;DHT22;13447;57.174;-2.112;2023-09-12T12:56:42;21.30;99.90
25556;DHT22;13447;57.174;-2.112;2023-09-12T12:59:10;21.50;99.90
25556;DHT22;13447;57.174;-2.112;2023-09-12T13:01:37;20.50;99.90
25556;DHT22;13447;57.174;-2.112;2023-09-12T13:04:05;20.10;99.90
25556;DHT22;13447;57.174;-2.112;2023-09-12T13:06:33;19.80;99.90
25556;DHT22;13447;57.174;-2.112;2023-09-12T13:09:03;19.50;99.90
25556;DHT22;13447;57.174;-2.112;2023-09-12T13:11:34;19.00;99.90
25556;DHT22;13447;57.174;-2.112;2023-09-12T13:14:02;19.20;99.90
25556;DHT22;13447;57.174;-2.112;2023-09-12T13:16:30;19.40;99.90
25556;DHT22;13447;57.174;-2.112;2023-09-12T13:18:57;19.90;99.90
25556;DHT22;13447;57.174;-2.112;2023-09-12T13:21:24;20.30;99.90
25556;DHT22;13447;57.174;-2.112;2023-09-12T13:23:51;20.70;99.90
25556;DHT22;13447;57.174;-2.112;2023-09-12T13:26:18;20.50;99.90
25556;DHT22;13447;57.174;-2.112;2023-09-12T13:28:45;20.20;99.90
25556;DHT22;13447;57.174;-2.112;2023-09-12T13:31:12;19.80;99.90
25556;DHT22;13447;57.174;-2.112;2023-09-12T13:33:39;19.30;99.90
25556;DHT22;13447;57.174;-2.112;2023-09-12T13:36:06;18.80;99.90
25556;DHT22;13447;57.174;-2.112;2023-09-12T13:38:33;18.50;99.90
25556;DHT22;13447;57.174;-2.112;2023-09-12T13:41:00;18.30;99.90
25556;DHT22;13447;57.174;-2.112;2023-09-12T13:43:27;17.90;99.90
25556;DHT22;13447;57.174;-2.112;2023-09-12T13:48:22;17.10;99.90
25556;DHT22;13447;57.174;-2.112;2023-09-12T13:50:49;16.80;99.90
25556;DHT22;13447;57.174;-2.112;2023-09-12T13:53:16;16.80;99.90
25556;DHT22;13447;57.174;-2.112;2023-09-12T13:55:43;16.70;99.90
25556;DHT22;13447;57.174;-2.112;2023-09-12T13:58:29;16.60;99.90
25556;DHT22;13447;57.174;-2.112;2023-09-12T14:01:08;16.60;99.90
25556;DHT22;13447;57.174;-2.112;2023-09-12T14:03:36;16.60;99.90
25556;DHT22;13447;57.174;-2.112;2023-09-12T14:06:05;16.50;99.90
25556;DHT22;13447;57.174;-2.112;2023-09-12T14:08:32;16.40;99.90
25556;DHT22;13447;57.174;-2.112;2023-09-12T14:10:59;16.40;99.90
25556;DHT22;13447;57.174;-2.112;2023-09-12T14:13:26;16.30;99.90
25556;DHT22;13447;57.174;-2.112;2023-09-12T14:18:22;16.30;99.90
25556;DHT22;13447;57.174;-2.112;2023-09-12T14:20:50;16.30;99.90
25556;DHT22;13447;57.174;-2.112;2023-09-12T14:23:19;16.40;99.90
25556;DHT22;13447;57.174;-2.112;2023-09-12T14:25:48;16.10;99.90
25556;DHT22;13447;57.174;-2.112;2023-09-12T14:28:15;16.10;99.90
25556;DHT22;13447;57.174;-2.112;2023-09-12T14:30:42;16.00;99.90
25556;DHT22;13447;57.174;-2.112;2023-09-12T14:33:12;16.10;99.90
25556;DHT22;13447;57.174;-2.112;2023-09-12T14:35:43;16.20;99.90
25556;DHT22;13447;57.174;-2.112;2023-09-12T14:38:10;16.20;99.90
25556;DHT22;13447;57.174;-2.112;2023-09-12T14:40:37;16.30;99.90
25556;DHT22;13447;57.174;-2.112;2023-09-12T14:43:05;16.20;99.90
25556;DHT22;13447;57.174;-2.112;2023-09-12T14:45:32;16.10;99.90
25556;DHT22;13447;57.174;-2.112;2023-09-12T14:47:59;15.90;99.90
25556;DHT22;13447;57.174;-2.112;2023-09-12T14:50:26;15.80;99.90
25556;DHT22;13447;57.174;-2.112;2023-09-12T14:53:08;15.70;99.90
25556;DHT22;13447;57.174;-2.112;2023-09-12T14:55:35;15.60;99.90
25556;DHT22;13447;57.174;-2.112;2023-09-12T14:58:02;15.50;99.90
25556;DHT22;13447;57.174;-2.112;2023-09-12T15:00:29;15.50;99.90
25556;DHT22;13447;57.174;-2.112;2023-09-12T15:02:57;15.50;99.90
25556;DHT22;13447;57.174;-2.112;2023-09-12T15:05:24;15.50;99.90
25556;DHT22;13447;57.174;-2.112;2023-09-12T15:07:51;15.40;99.90
25556;DHT22;13447;57.174;-2.112;2023-09-12T15:10:18;15.40;99.90
25556;DHT22;13447;57.174;-2.112;2023-09-12T15:12:45;15.40;99.90
25556;DHT22;13447;57.174;-2.112;2023-09-12T15:15:12;15.40;99.90
25556;DHT22;13447;57.174;-2.112;2023-09-12T15:17:39;15.50;99.90
25556;DHT22;13447;57.174;-2.112;2023-09-12T15:20:07;15.50;99.90
25556;DHT22;13447;57.174;-2.112;2023-09-12T15:22:34;15.50;99.90
25556;DHT22;13447;57.174;-2.112;2023-09-12T15:25:02;15.50;99.90
25556;DHT22;13447;57.174;-2.112;2023-09-12T15:27:29;15.70;99.90
25556;DHT22;13447;57.174;-2.112;2023-09-12T15:29:56;15.70;99.90
25556;DHT22;13447;57.174;-2.112;2023-09-12T15:32:23;15.60;99.90
25556;DHT22;13447;57.174;-2.112;2023-09-12T15:34:50;15.50;99.90
25556;DHT22;13447;57.174;-2.112;2023-09-12T15:37:17;15.40;99.90
25556;DHT22;13447;57.174;-2.112;2023-09-12T15:39:48;15.30;99.90
25556;DHT22;13447;57.174;-2.112;2023-09-12T15:42:15;15.20;99.90
25556;DHT22;13447;57.174;-2.112;2023-09-12T15:45:02;15.20;99.90
25556;DHT22;13447;57.174;-2.112;2023-09-12T15:47:31;15.40;99.90
25556;DHT22;13447;57.174;-2.112;2023-09-12T15:49:59;15.40;99.90
25556;DHT22;13447;57.174;-2.112;2023-09-12T15:52:25;15.40;99.90
25556;DHT22;13447;57.174;-2.112;2023-09-12T15:54:52;15.40;99.90
25556;DHT22;13447;57.174;-2.112;2023-09-12T15:57:21;15.40;99.90
25556;DHT22;13447;57.174;-2.112;2023-09-12T15:59:48;15.40;99.90
25556;DHT22;13447;57.174;-2.112;2023-09-12T16:02:15;15.40;99.90
25556;DHT22;13447;57.174;-2.112;2023-09-12T16:04:42;15.40;99.90
25556;DHT22;13447;57.174;-2.112;2023-09-12T16:07:09;15.40;99.90
25556;DHT22;13447;57.174;-2.112;2023-09-12T16:09:36;15.40;99.90
25556;DHT22;13447;57.174;-2.112;2023-09-12T16:12:03;15.30;99.90
25556;DHT22;13447;57.174;-2.112;2023-09-12T16:14:30;15.20;99.90
25556;DHT22;13447;57.174;-2.112;2023-09-12T16:16:57;15.20;99.90
25556;DHT22;13447;57.174;-2.112;2023-09-12T16:19:25;15.20;99.90
25556;DHT22;13447;57.174;-2.112;2023-09-12T16:21:52;15.10;99.90
25556;DHT22;13447;57.174;-2.112;2023-09-12T16:24:19;15.10;99.90
25556;DHT22;13447;57.174;-2.112;2023-09-12T16:29:16;15.20;99.90
25556;DHT22;13447;57.174;-2.112;2023-09-12T16:31:44;15.10;99.90
25556;DHT22;13447;57.174;-2.112;2023-09-12T16:34:11;15.00;99.90
25556;DHT22;13447;57.174;-2.112;2023-09-12T16:36:39;14.90;99.90
25556;DHT22;13447;57.174;-2.112;2023-09-12T16:39:09;14.90;99.90
25556;DHT22;13447;57.174;-2.112;2023-09-12T16:41:38;14.90;99.90
25556;DHT22;13447;57.174;-2.112;2023-09-12T16:44:05;14.90;99.90
25556;DHT22;13447;57.174;-2.112;2023-09-12T16:46:31;14.90;99.90
25556;DHT22;13447;57.174;-2.112;2023-09-12T16:48:58;14.80;99.90
25556;DHT22;13447;57.174;-2.112;2023-09-12T16:51:25;14.80;99.90
25556;DHT22;13447;57.174;-2.112;2023-09-12T16:53:53;14.80;99.90
25556;DHT22;13447;57.174;-2.112;2023-09-12T16:56:20;14.70;99.90
25556;DHT22;13447;57.174;-2.112;2023-09-12T16:58:47;14.70;99.90
25556;DHT22;13447;57.174;-2.112;2023-09-12T17:01:14;14.70;99.90
25556;DHT22;13447;57.174;-2.112;2023-09-12T17:03:42;14.70;99.90
25556;DHT22;13447;57.174;-2.112;2023-09-12T17:06:10;14.70;99.90
25556;DHT22;13447;57.174;-2.112;2023-09-12T17:08:41;14.60;99.90
25556;DHT22;13447;57.174;-2.112;2023-09-12T17:11:08;14.60;99.90
25556;DHT22;13447;57.174;-2.112;2023-09-12T17:13:35;14.60;99.90
25556;DHT22;13447;57.174;-2.112;2023-09-12T17:16:02;14.60;99.90
25556;DHT22;13447;57.174;-2.112;2023-09-12T17:18:29;14.50;99.90
25556;DHT22;13447;57.174;-2.112;2023-09-12T17:20:59;14.60;99.90
25556;DHT22;13447;57.174;-2.112;2023-09-12T17:23:29;14.50;99.90
25556;DHT22;13447;57.174;-2.112;2023-09-12T17:25:56;14.40;99.90
25556;DHT22;13447;57.174;-2.112;2023-09-12T17:28:23;14.30;99.90
25556;DHT22;13447;57.174;-2.112;2023-09-12T17:30:49;14.20;99.90
25556;DHT22;13447;57.174;-2.112;2023-09-12T17:33:17;14.20;99.90
25556;DHT22;13447;57.174;-2.112;2023-09-12T17:35:44;14.10;1.00
25556;DHT22;13447;57.174;-2.112;2023-09-12T17:38:11;14.10;1.00
25556;DHT22;13447;57.174;-2.112;2023-09-12T17:40:38;14.00;1.00
25556;DHT22;13447;57.174;-2.112;2023-09-12T17:43:05;14.00;1.00
25556;DHT22;13447;57.174;-2.112;2023-09-12T17:45:32;14.00;1.00
25556;DHT22;13447;57.174;-2.112;2023-09-12T17:48:01;13.90;1.00
25556;DHT22;13447;57.174;-2.112;2023-09-12T17:50:28;13.80;1.00
25556;DHT22;13447;57.174;-2.112;2023-09-12T17:52:56;13.80;1.00
25556;DHT22;13447;57.174;-2.112;2023-09-12T17:55:27;13.80;1.00
25556;DHT22;13447;57.174;-2.112;2023-09-12T17:57:54;13.70;1.00
25556;DHT22;13447;57.174;-2.112;2023-09-12T18:00:21;13.70;1.00
25556;DHT22;13447;57.174;-2.112;2023-09-12T18:02:54;13.60;1.00
25556;DHT22;13447;57.174;-2.112;2023-09-12T18:05:21;13.50;1.00
25556;DHT22;13447;57.174;-2.112;2023-09-12T18:07:48;13.50;1.00
25556;DHT22;13447;57.174;-2.112;2023-09-12T18:10:15;13.50;1.00
25556;DHT22;13447;57.174;-2.112;2023-09-12T18:12:42;13.40;1.00
25556;DHT22;13447;57.174;-2.112;2023-09-12T18:17:46;13.20;1.00
25556;DHT22;13447;57.174;-2.112;2023-09-12T18:20:13;13.20;1.00
25556;DHT22;13447;57.174;-2.112;2023-09-12T18:22:40;13.20;1.00
25556;DHT22;13447;57.174;-2.112;2023-09-12T18:25:07;13.10;1.00
25556;DHT22;13447;57.174;-2.112;2023-09-12T18:27:34;13.10;1.00
25556;DHT22;13447;57.174;-2.112;2023-09-12T18:30:01;13.00;1.00
25556;DHT22;13447;57.174;-2.112;2023-09-12T18:32:27;13.00;1.00
25556;DHT22;13447;57.174;-2.112;2023-09-12T18:34:54;12.90;1.00
25556;DHT22;13447;57.174;-2.112;2023-09-12T18:37:23;12.80;1.00
25556;DHT22;13447;57.174;-2.112;2023-09-12T18:39:50;12.80;1.00
25556;DHT22;13447;57.174;-2.112;2023-09-12T18:42:17;12.80;1.00
25556;DHT22;13447;57.174;-2.112;2023-09-12T18:44:44;12.70;1.00
25556;DHT22;13447;57.174;-2.112;2023-09-12T18:47:10;12.70;1.00
25556;DHT22;13447;57.174;-2.112;2023-09-12T18:49:39;12.60;1.00
25556;DHT22;13447;57.174;-2.112;2023-09-12T18:52:07;12.50;1.00
25556;DHT22;13447;57.174;-2.112;2023-09-12T18:54:34;12.40;1.00
25556;DHT22;13447;57.174;-2.112;2023-09-12T18:57:07;12.40;1.00
25556;DHT22;13447;57.174;-2.112;2023-09-12T18:59:35;12.40;1.00
25556;DHT22;13447;57.174;-2.112;2023-09-12T19:02:02;12.30;7.90
25556;DHT22;13447;57.174;-2.112;2023-09-12T19:04:30;12.20;76.70
25556;DHT22;13447;57.174;-2.112;2023-09-12T19:06:57;12.20;66.70
25556;DHT22;13447;57.174;-2.112;2023-09-12T19:09:25;12.20;83.50
25556;DHT22;13447;57.174;-2.112;2023-09-12T19:11:53;12.10;62.20
25556;DHT22;13447;57.174;-2.112;2023-09-12T19:14:20;12.10;71.30
25556;DHT22;13447;57.174;-2.112;2023-09-12T19:16:50;12.00;99.90
25556;DHT22;13447;57.174;-2.112;2023-09-12T19:19:17;12.00;70.30
25556;DHT22;13447;57.174;-2.112;2023-09-12T19:21:44;12.00;94.70
25556;DHT22;13447;57.174;-2.112;2023-09-12T19:24:12;11.90;99.90
25556;DHT22;13447;57.174;-2.112;2023-09-12T19:26:40;11.90;93.70
25556;DHT22;13447;57.174;-2.112;2023-09-12T19:29:07;11.80;81.20
25556;DHT22;13447;57.174;-2.112;2023-09-12T19:31:34;11.80;92.90
25556;DHT22;13447;57.174;-2.112;2023-09-12T19:34:01;11.60;99.90
25556;DHT22;13447;57.174;-2.112;2023-09-12T19:36:30;11.60;99.90
25556;DHT22;13447;57.174;-2.112;2023-09-12T19:38:57;11.50;99.90
25556;DHT22;13447;57.174;-2.112;2023-09-12T19:41:28;11.40;99.90
25556;DHT22;13447;57.174;-2.112;2023-09-12T19:43:54;11.40;99.90
25556;DHT22;13447;57.174;-2.112;2023-09-12T19:46:21;11.30;99.90
25556;DHT22;13447;57.174;-2.112;2023-09-12T19:48:48;11.30;99.90
25556;DHT22;13447;57.174;-2.112;2023-09-12T19:51:15;11.30;99.90
25556;DHT22;13447;57.174;-2.112;2023-09-12T19:53:42;11.20;99.90
25556;DHT22;13447;57.174;-2.112;2023-09-12T19:56:09;11.30;99.90
25556;DHT22;13447;57.174;-2.112;2023-09-12T19:58:36;11.20;99.90
25556;DHT22;13447;57.174;-2.112;2023-09-12T20:01:03;11.20;99.90
25556;DHT22;13447;57.174;-2.112;2023-09-12T20:03:33;11.20;99.90
25556;DHT22;13447;57.174;-2.112;2023-09-12T20:06:00;11.20;99.90
25556;DHT22;13447;57.174;-2.112;2023-09-12T20:08:27;11.10;99.90
25556;DHT22;13447;57.174;-2.112;2023-09-12T20:10:54;11.10;99.90
25556;DHT22;13447;57.174;-2.112;2023-09-12T20:13:22;11.10;99.90
25556;DHT22;13447;57.174;-2.112;2023-09-12T20:15:50;11.10;99.90
25556;DHT22;13447;57.174;-2.112;2023-09-12T20:18:18;11.10;99.90
25556;DHT22;13447;57.174;-2.112;2023-09-12T20:20:45;11.00;99.90
25556;DHT22;13447;57.174;-2.112;2023-09-12T20:23:12;11.00;99.90
25556;DHT22;13447;57.174;-2.112;2023-09-12T20:25:39;11.10;99.90
25556;DHT22;13447;57.174;-2.112;2023-09-12T20:28:06;11.10;99.90
25556;DHT22;13447;57.174;-2.112;2023-09-12T20:30:33;11.10;99.90
25556;DHT22;13447;57.174;-2.112;2023-09-12T20:33:00;11.00;99.90
25556;DHT22;13447;57.174;-2.112;2023-09-12T20:35:28;11.00;99.90
25556;DHT22;13447;57.174;-2.112;2023-09-12T20:37:57;11.00;99.90
25556;DHT22;13447;57.174;-2.112;2023-09-12T20:40:24;11.00;99.90
25556;DHT22;13447;57.174;-2.112;2023-09-12T20:42:51;11.00;99.90
25556;DHT22;13447;57.174;-2.112;2023-09-12T20:47:51;11.00;99.90
25556;DHT22;13447;57.174;-2.112;2023-09-12T20:50:19;11.00;99.90
25556;DHT22;13447;57.174;-2.112;2023-09-12T20:52:52;10.90;99.90
25556;DHT22;13447;57.174;-2.112;2023-09-12T20:55:19;10.90;99.90
25556;DHT22;13447;57.174;-2.112;2023-09-12T20:57:46;10.80;99.90
25556;DHT22;13447;57.174;-2.112;2023-09-12T21:00:13;10.80;99.90
25556;DHT22;13447;57.174;-2.112;2023-09-12T21:02:40;10.70;99.90
25556;DHT22;13447;57.174;-2.112;2023-09-12T21:05:10;10.70;99.90
25556;DHT22;13447;57.174;-2.112;2023-09-12T21:07:37;10.80;99.90
25556;DHT22;13447;57.174;-2.112;2023-09-12T21:10:04;10.80;99.90
25556;DHT22;13447;57.174;-2.112;2023-09-12T21:12:31;10.60;99.90
25556;DHT22;13447;57.174;-2.112;2023-09-12T21:14:58;10.60;99.90
25556;DHT22;13447;57.174;-2.112;2023-09-12T21:17:26;10.60;99.90
25556;DHT22;13447;57.174;-2.112;2023-09-12T21:19:53;10.50;99.90
25556;DHT22;13447;57.174;-2.112;2023-09-12T21:22:19;10.50;99.90
25556;DHT22;13447;57.174;-2.112;2023-09-12T21:24:47;10.40;99.90
25556;DHT22;13447;57.174;-2.112;2023-09-12T21:27:14;10.40;99.90
25556;DHT22;13447;57.174;-2.112;2023-09-12T21:29:41;10.40;99.90
25556;DHT22;13447;57.174;-2.112;2023-09-12T21:32:08;10.30;99.90
25556;DHT22;13447;57.174;-2.112;2023-09-12T21:34:35;10.20;99.90
25556;DHT22;13447;57.174;-2.112;2023-09-12T21:37:02;10.20;99.90
25556;DHT22;13447;57.174;-2.112;2023-09-12T21:39:29;10.10;99.90
25556;DHT22;13447;57.174;-2.112;2023-09-12T21:41:56;10.10;99.90
25556;DHT22;13447;57.174;-2.112;2023-09-12T21:44:23;10.10;99.90
25556;DHT22;13447;57.174;-2.112;2023-09-12T21:46:50;10.00;99.90
25556;DHT22;13447;57.174;-2.112;2023-09-12T21:49:17;10.00;99.90
25556;DHT22;13447;57.174;-2.112;2023-09-12T21:51:45;10.00;99.90
25556;DHT22;13447;57.174;-2.112;2023-09-12T21:54:12;10.00;99.90
25556;DHT22;13447;57.174;-2.112;2023-09-12T21:56:39;9.90;99.90